Time,TemperatureF,DewpointF,PressureIn,WindDirection,WindDirectionDegrees,WindSpeedMPH,WindSpeedGustMPH,Humidity,HourlyPrecipIn,Conditions,Clouds,dailyrainin,SolarRadiationWatts/m^2,SoftwareType,DateUTC
2013-06-28 00:02:00,54.0,52.0,-100.00,NNW,342,1.0,4.0,92,0.00,,,0.00,0.000000,,2013-06-28 06:02:00,
2013-06-28 00:11:00,54.0,52.0,-100.00,NNW,342,1.0,4.0,92,0.00,,,0.00,0.000000,,2013-06-28 06:11:00,
2013-06-28 01:11:00,51.0,50.0,-100.00,NNW,335,3.0,4.0,96,0.00,,,0.00,0.000000,,2013-06-28 07:11:00,
2013-06-28 02:01:00,49.0,48.0,-100.00,NNW,337,1.0,4.0,96,0.00,,,-99.99,0.000000,,2013-06-28 08:01:00,
2013-06-28 04:02:00,46.0,46.0,-100.00,North,0,1.0,4.0,99,0.00,,,-99.99,0.000000,,2013-06-28 10:02:00,
2013-06-28 04:11:00,46.0,46.0,-100.00,North,0,1.0,4.0,99,0.00,,,-99.99,0.000000,,2013-06-28 10:11:00,
2013-06-28 05:01:00,45.0,45.0,-100.00,North,11,1.0,4.0,99,-99.99,,,0.00,0.000000,,2013-06-28 11:01:00,
2013-06-28 05:11:00,45.0,45.0,-100.00,North,11,1.0,4.0,99,-99.99,,,0.00,0.000000,,2013-06-28 11:11:00,
2013-06-28 06:01:00,44.0,44.0,-100.00,NNE,22,1.0,2.0,99,-99.99,,,0.00,0.000000,,2013-06-28 12:01:00,
2013-06-28 06:12:00,44.0,44.0,-100.00,NNE,22,1.0,2.0,99,-99.99,,,0.00,0.000000,,2013-06-28 12:12:00,
2013-06-28 06:43:00,46.0,46.0,-100.00,North,351,1.0,3.0,100,-99.99,,,0.00,5.000000,,2013-06-28 12:43:00,
2013-06-28 06:52:00,46.0,46.0,-100.00,North,351,1.0,3.0,100,-99.99,,,0.00,5.000000,,2013-06-28 12:52:00,
2013-06-28 07:01:00,46.0,46.0,-100.00,North,351,1.0,3.0,100,-99.99,,,0.00,5.000000,,2013-06-28 13:01:00,
2013-06-28 07:11:00,46.0,46.0,-100.00,North,351,1.0,3.0,100,-99.99,,,0.00,5.000000,,2013-06-28 13:11:00,
2013-06-28 07:43:00,51.0,51.0,-100.00,NNE,23,1.0,3.0,100,-99.99,,,0.00,72.000000,,2013-06-28 13:43:00,
2013-06-28 07:53:00,51.0,51.0,-100.00,NNE,23,1.0,3.0,100,-99.99,,,0.00,72.000000,,2013-06-28 13:53:00,
2013-06-28 08:01:00,51.0,51.0,-100.00,NNE,23,1.0,3.0,100,-99.99,,,0.00,72.000000,,2013-06-28 14:01:00,
2013-06-28 08:11:00,51.0,51.0,-100.00,NNE,23,1.0,3.0,100,-99.99,,,0.00,72.000000,,2013-06-28 14:11:00,
2013-06-28 08:44:00,61.0,55.0,-100.00,SSE,167,2.0,3.0,80,0.00,,,0.00,252.000000,,2013-06-28 14:44:00,
2013-06-28 08:53:00,61.0,55.0,-100.00,SSE,167,2.0,3.0,80,0.00,,,0.00,252.000000,,2013-06-28 14:53:00,
2013-06-28 09:02:00,61.0,55.0,-100.00,SSE,167,2.0,3.0,80,0.00,,,0.00,252.000000,,2013-06-28 15:02:00,
2013-06-28 09:11:00,61.0,55.0,-100.00,SSE,167,2.0,3.0,80,0.00,,,0.00,252.000000,,2013-06-28 15:11:00,
2013-06-28 09:43:00,65.0,55.0,-100.00,SSE,157,3.0,5.0,69,0.00,,,0.00,439.000000,,2013-06-28 15:43:00,
2013-06-28 09:52:00,65.0,55.0,-100.00,SSE,157,3.0,5.0,69,0.00,,,0.00,439.000000,,2013-06-28 15:52:00,
2013-06-28 10:01:00,65.0,55.0,-100.00,SSE,157,3.0,5.0,69,0.00,,,0.00,439.000000,,2013-06-28 16:01:00,
2013-06-28 10:11:00,65.0,55.0,-100.00,SSE,157,3.0,5.0,69,0.00,,,0.00,439.000000,,2013-06-28 16:11:00,
2013-06-28 10:53:00,71.0,55.0,-100.00,SE,141,3.0,6.0,57,0.00,,,0.00,619.000000,,2013-06-28 16:53:00,
2013-06-28 11:02:00,71.0,55.0,-100.00,SE,141,3.0,6.0,57,0.00,,,0.00,619.000000,,2013-06-28 17:02:00,
2013-06-28 11:11:00,71.0,55.0,-100.00,SE,141,3.0,6.0,57,0.00,,,0.00,619.000000,,2013-06-28 17:11:00,
2013-06-28 11:44:00,72.0,54.0,-100.00,SSE,153,5.0,7.0,54,0.00,,,0.00,797.000000,,2013-06-28 17:44:00,
2013-06-28 11:52:00,72.0,54.0,-100.00,SSE,153,5.0,7.0,54,0.00,,,0.00,797.000000,,2013-06-28 17:52:00,
2013-06-28 12:01:00,72.0,54.0,-100.00,SSE,153,5.0,7.0,54,0.00,,,0.00,797.000000,,2013-06-28 18:01:00,
2013-06-28 12:11:00,72.0,54.0,-100.00,SSE,153,5.0,7.0,54,0.00,,,0.00,797.000000,,2013-06-28 18:11:00,
2013-06-28 12:43:00,75.0,55.0,-100.00,SSE,156,4.0,7.0,50,0.00,,,-99.99,937.000000,,2013-06-28 18:43:00,
2013-06-28 12:52:00,75.0,55.0,-100.00,SSE,156,4.0,7.0,50,0.00,,,-99.99,937.000000,,2013-06-28 18:52:00,
2013-06-28 13:01:00,75.0,55.0,-100.00,SSE,156,4.0,7.0,50,0.00,,,-99.99,937.000000,,2013-06-28 19:01:00,
2013-06-28 13:11:00,75.0,55.0,-100.00,SSE,156,4.0,7.0,50,0.00,,,-99.99,937.000000,,2013-06-28 19:11:00,
2013-06-28 13:43:00,78.0,56.0,-100.00,SE,138,5.0,10.0,47,0.00,,,0.00,1034.000000,,2013-06-28 19:43:00,
2013-06-28 13:53:00,78.0,56.0,-100.00,SE,138,5.0,10.0,47,0.00,,,0.00,1034.000000,,2013-06-28 19:53:00,
2013-06-28 14:02:00,78.0,56.0,-100.00,SE,138,5.0,10.0,47,0.00,,,0.00,1034.000000,,2013-06-28 20:02:00,
2013-06-28 14:11:00,78.0,56.0,-100.00,SE,138,5.0,10.0,47,0.00,,,0.00,1034.000000,,2013-06-28 20:11:00,
2013-06-28 14:43:00,78.0,55.0,-100.00,South,174,4.0,7.0,45,0.00,,,0.00,949.000000,,2013-06-28 20:43:00,
2013-06-28 14:52:00,78.0,55.0,-100.00,South,174,4.0,7.0,45,0.00,,,0.00,949.000000,,2013-06-28 20:52:00,
2013-06-28 15:01:00,78.0,55.0,-100.00,South,174,4.0,7.0,45,0.00,,,0.00,949.000000,,2013-06-28 21:01:00,
2013-06-28 15:11:00,78.0,55.0,-100.00,South,174,4.0,7.0,45,0.00,,,0.00,949.000000,,2013-06-28 21:11:00,
2013-06-28 15:43:00,82.0,55.0,-100.00,NNW,329,5.0,12.0,40,0.00,,,0.00,1024.000000,,2013-06-28 21:43:00,
2013-06-28 15:53:00,82.0,55.0,-100.00,NNW,329,5.0,12.0,40,0.00,,,0.00,1024.000000,,2013-06-28 21:53:00,
2013-06-28 16:01:00,82.0,55.0,-100.00,NNW,329,5.0,12.0,40,0.00,,,0.00,1024.000000,,2013-06-28 22:01:00,
2013-06-28 16:11:00,82.0,55.0,-100.00,NNW,329,5.0,12.0,40,0.00,,,0.00,1024.000000,,2013-06-28 22:11:00,
2013-06-28 16:43:00,84.0,56.0,-100.00,North,6,4.0,13.0,38,0.00,,,0.00,952.000000,,2013-06-28 22:43:00,
2013-06-28 16:52:00,84.0,56.0,-100.00,North,6,4.0,13.0,38,0.00,,,0.00,952.000000,,2013-06-28 22:52:00,
2013-06-28 17:01:00,84.0,56.0,-100.00,North,6,4.0,13.0,38,0.00,,,0.00,952.000000,,2013-06-28 23:01:00,
2013-06-28 17:11:00,84.0,56.0,-100.00,North,6,4.0,13.0,38,0.00,,,0.00,952.000000,,2013-06-28 23:11:00,
2013-06-28 17:43:00,84.0,54.0,-100.00,NW,310,5.0,10.0,36,0.00,,,0.00,621.000000,,2013-06-28 23:43:00,
2013-06-28 17:53:00,84.0,54.0,-100.00,NW,310,5.0,10.0,36,0.00,,,0.00,621.000000,,2013-06-28 23:53:00,
2013-06-28 18:01:00,84.0,54.0,-100.00,NW,310,5.0,10.0,36,0.00,,,0.00,621.000000,,2013-06-29 00:01:00,
2013-06-28 18:11:00,84.0,54.0,-100.00,NW,310,5.0,10.0,36,0.00,,,0.00,621.000000,,2013-06-29 00:11:00,
2013-06-28 19:42:00,85.0,53.0,-100.00,NNW,335,3.0,7.0,34,-99.99,,,0.00,450.000000,,2013-06-29 01:42:00,
2013-06-28 19:51:00,85.0,53.0,-100.00,NNW,335,3.0,7.0,34,-99.99,,,0.00,450.000000,,2013-06-29 01:51:00,
2013-06-28 20:01:00,85.0,53.0,-100.00,NNW,335,3.0,7.0,34,-99.99,,,0.00,450.000000,,2013-06-29 02:01:00,
2013-06-28 20:10:00,85.0,53.0,-100.00,NNW,335,3.0,7.0,34,-99.99,,,0.00,450.000000,,2013-06-29 02:10:00,
2013-06-28 20:41:00,82.0,52.0,-100.00,ENE,61,5.0,9.0,36,0.00,,,0.00,316.000000,,2013-06-29 02:41:00,
2013-06-28 20:51:00,82.0,52.0,-100.00,ENE,61,5.0,9.0,36,0.00,,,0.00,316.000000,,2013-06-29 02:51:00,
2013-06-28 21:01:00,82.0,52.0,-100.00,ENE,61,5.0,9.0,36,0.00,,,0.00,316.000000,,2013-06-29 03:01:00,
2013-06-28 21:11:00,82.0,52.0,-100.00,ENE,61,5.0,9.0,36,0.00,,,0.00,316.000000,,2013-06-29 03:11:00,
2013-06-28 21:41:00,74.0,55.0,-100.00,NNW,331,3.0,7.0,51,0.00,,,0.00,122.000000,,2013-06-29 03:41:00,
2013-06-28 21:51:00,74.0,55.0,-100.00,NNW,331,3.0,7.0,51,0.00,,,0.00,122.000000,,2013-06-29 03:51:00,
2013-06-28 22:01:00,74.0,55.0,-100.00,NNW,331,3.0,7.0,51,0.00,,,0.00,122.000000,,2013-06-29 04:01:00,
2013-06-28 22:10:00,74.0,55.0,-100.00,NNW,331,3.0,7.0,51,0.00,,,0.00,122.000000,,2013-06-29 04:10:00,
2013-06-28 23:10:00,63.0,57.0,-100.00,NNW,340,3.0,4.0,82,0.00,,,0.00,5.000000,,2013-06-29 05:10:00,